createdAt,value
2017-03-12T00:00:41.096Z,0
2017-03-12T00:01:41.120Z,0
2017-03-12T00:02:41.126Z,0
2017-03-12T00:03:41.154Z,0
2017-03-12T00:04:41.162Z,0
2017-03-12T00:05:41.169Z,0
2017-03-12T00:06:41.187Z,0
2017-03-12T00:07:41.209Z,0
2017-03-12T00:08:41.218Z,0
2017-03-12T00:09:41.430Z,0
2017-03-12T00:10:40.845Z,0
2017-03-12T00:11:41.257Z,0
2017-03-12T00:12:41.271Z,0
2017-03-12T00:13:41.284Z,0
2017-03-12T00:14:40.903Z,0
2017-03-12T00:15:41.313Z,0
2017-03-12T00:16:41.305Z,0
2017-03-12T00:17:41.328Z,0
2017-03-12T00:18:40.945Z,0
2017-03-12T00:19:41.593Z,0
2017-03-12T00:20:41.386Z,0
2017-03-12T00:21:40.981Z,0
2017-03-12T00:22:41.398Z,0
2017-03-12T00:23:41.420Z,0
2017-03-12T00:24:41.430Z,0
2017-03-12T00:25:41.472Z,0
2017-03-12T00:26:41.453Z,0
2017-03-12T00:27:41.483Z,0
2017-03-12T00:28:41.515Z,0
2017-03-12T00:29:41.500Z,0
2017-03-12T00:30:41.504Z,0
2017-03-12T00:31:41.508Z,0
2017-03-12T00:32:41.543Z,0
2017-03-12T00:33:41.562Z,0
2017-03-12T00:34:41.558Z,0
2017-03-12T00:35:41.564Z,0
2017-03-12T00:36:41.578Z,0
2017-03-12T00:37:41.610Z,0
2017-03-12T00:38:41.608Z,0
2017-03-12T00:39:41.621Z,0
2017-03-12T00:40:41.643Z,0
2017-03-12T00:41:41.651Z,0
2017-03-12T00:42:41.676Z,0
2017-03-12T00:43:41.723Z,0
2017-03-12T00:44:41.736Z,0
2017-03-12T00:45:41.739Z,0
2017-03-12T00:46:41.742Z,0
2017-03-12T00:47:41.870Z,0
2017-03-12T00:48:41.785Z,0
2017-03-12T00:49:41.757Z,0
2017-03-12T00:50:41.767Z,0
2017-03-12T00:51:41.793Z,0
2017-03-12T00:52:41.797Z,0
2017-03-12T00:53:41.019Z,0
2017-03-12T00:54:41.843Z,0
2017-03-12T00:55:41.939Z,0
2017-03-12T00:56:41.890Z,0
2017-03-12T00:57:41.875Z,0
2017-03-12T00:58:41.922Z,0
2017-03-12T00:59:41.618Z,0
2017-03-12T01:00:41.932Z,0
2017-03-12T01:01:41.940Z,0
2017-03-12T01:02:41.946Z,0
2017-03-12T01:03:42.092Z,0
2017-03-12T01:04:42.032Z,0
2017-03-12T01:05:42.042Z,0
2017-03-12T01:06:42.050Z,0
2017-03-12T01:07:41.611Z,0
2017-03-12T01:08:42.058Z,0
2017-03-12T01:09:42.066Z,0
2017-03-12T01:10:42.075Z,0
2017-03-12T01:11:42.057Z,0
2017-03-12T01:12:42.074Z,0
2017-03-12T01:13:42.098Z,0
2017-03-12T01:14:42.088Z,0
2017-03-12T01:15:42.123Z,0
2017-03-12T01:16:42.123Z,0
2017-03-12T01:17:41.737Z,0
2017-03-12T01:18:42.217Z,0
2017-03-12T01:19:41.776Z,0
2017-03-12T01:20:42.172Z,0
2017-03-12T01:21:42.188Z,0
2017-03-12T01:22:42.205Z,0
2017-03-12T01:23:42.236Z,0
2017-03-12T01:24:42.236Z,0
2017-03-12T01:25:42.233Z,0
2017-03-12T01:26:42.471Z,0
2017-03-12T01:27:42.267Z,0
2017-03-12T01:28:42.295Z,0
2017-03-12T01:29:42.308Z,0
2017-03-12T01:30:42.312Z,0
2017-03-12T01:31:42.336Z,0
2017-03-12T01:32:42.340Z,0
2017-03-12T01:33:42.357Z,0
2017-03-12T01:34:42.389Z,0
2017-03-12T01:35:42.382Z,0
2017-03-12T01:36:42.388Z,0
2017-03-12T01:37:42.021Z,0
2017-03-12T01:38:42.432Z,0
2017-03-12T01:39:42.447Z,0
2017-03-12T01:40:42.043Z,0
2017-03-12T01:41:42.463Z,0
2017-03-12T01:42:42.467Z,0
2017-03-12T01:43:42.498Z,0
2017-03-12T01:44:42.499Z,0
2017-03-12T01:45:42.505Z,0
2017-03-12T01:46:42.546Z,0
2017-03-12T01:47:42.546Z,0
2017-03-12T01:48:42.548Z,0
2017-03-12T01:49:42.173Z,0
2017-03-12T01:50:42.570Z,0
2017-03-12T01:51:42.614Z,0
2017-03-12T01:52:42.634Z,0
2017-03-12T01:53:42.631Z,0
2017-03-12T01:54:42.241Z,0
2017-03-12T01:55:42.655Z,0
2017-03-12T01:56:42.665Z,0
2017-03-12T01:57:42.669Z,0
2017-03-12T01:58:42.707Z,0
2017-03-12T01:59:42.723Z,0
2017-03-12T02:00:42.512Z,0
2017-03-12T02:01:42.724Z,0
2017-03-12T02:02:42.749Z,0
2017-03-12T02:03:42.750Z,0
2017-03-12T02:04:42.763Z,0
2017-03-12T02:05:42.833Z,0
2017-03-12T02:06:42.392Z,0
2017-03-12T02:07:42.793Z,0
2017-03-12T02:08:42.405Z,0
2017-03-12T02:09:42.968Z,0
2017-03-12T02:10:42.965Z,0
2017-03-12T02:11:42.849Z,0
2017-03-12T02:12:42.918Z,0
2017-03-12T02:13:42.485Z,0
2017-03-12T02:14:42.510Z,0
2017-03-12T02:15:42.583Z,0
2017-03-12T02:16:42.513Z,0
2017-03-12T02:17:42.542Z,0
2017-03-12T02:18:42.564Z,0
2017-03-12T02:19:42.558Z,0
2017-03-12T02:20:42.583Z,0
2017-03-12T02:21:42.615Z,0
2017-03-12T02:22:43.071Z,0
2017-03-12T02:23:43.221Z,0
2017-03-12T02:24:43.013Z,0
2017-03-12T02:25:43.035Z,0
2017-03-12T02:26:43.051Z,0
2017-03-12T02:27:42.278Z,0
2017-03-12T02:28:42.683Z,0
2017-03-12T02:29:43.093Z,0
2017-03-12T02:30:43.105Z,0
2017-03-12T02:31:43.112Z,0
2017-03-12T02:32:43.143Z,0
2017-03-12T02:33:43.454Z,0
2017-03-12T02:34:43.156Z,0
2017-03-12T02:35:42.810Z,0
2017-03-12T02:36:42.790Z,0
2017-03-12T02:37:43.197Z,0
2017-03-12T02:38:43.205Z,0
2017-03-12T02:39:43.238Z,0
2017-03-12T02:40:43.231Z,0
2017-03-12T02:41:43.481Z,0
2017-03-12T02:42:43.281Z,0
2017-03-12T02:43:43.286Z,0
2017-03-12T02:44:42.921Z,0
2017-03-12T02:45:43.306Z,0
2017-03-12T02:46:43.329Z,0
2017-03-12T02:47:43.318Z,0
2017-03-12T02:48:43.336Z,0
2017-03-12T02:49:42.567Z,0
2017-03-12T02:50:42.969Z,0
2017-03-12T02:51:42.999Z,0
2017-03-12T02:52:43.461Z,0
2017-03-12T02:53:43.453Z,0
2017-03-12T02:54:43.012Z,0
2017-03-12T02:55:43.427Z,0
2017-03-12T02:56:43.447Z,0
2017-03-12T02:57:43.457Z,0
2017-03-12T02:58:43.087Z,0
2017-03-12T02:59:43.093Z,0
2017-03-12T03:00:43.503Z,0
2017-03-12T03:01:43.546Z,0
2017-03-12T03:02:43.184Z,0
2017-03-12T03:03:43.547Z,0
2017-03-12T03:04:43.536Z,0
2017-03-12T03:05:43.161Z,0
2017-03-12T03:06:43.599Z,0
2017-03-12T03:07:43.595Z,0
2017-03-12T03:08:43.598Z,0
2017-03-12T03:09:43.250Z,0
2017-03-12T03:10:43.617Z,0
2017-03-12T03:11:43.631Z,0
2017-03-12T03:12:43.660Z,0
2017-03-12T03:13:43.815Z,0
2017-03-12T03:14:43.678Z,0
2017-03-12T03:15:43.686Z,0
2017-03-12T03:16:43.690Z,0
2017-03-12T03:17:43.709Z,0
2017-03-12T03:18:43.723Z,0
2017-03-12T03:19:43.732Z,0
2017-03-12T03:20:44.017Z,0
2017-03-12T03:21:43.785Z,0
2017-03-12T03:22:43.898Z,0
2017-03-12T03:23:43.000Z,0
2017-03-12T03:24:43.411Z,0
2017-03-12T03:25:43.413Z,0
2017-03-12T03:26:43.828Z,0
2017-03-12T03:27:43.832Z,0
2017-03-12T03:28:43.843Z,0
2017-03-12T03:29:43.977Z,0
2017-03-12T03:30:44.008Z,0
2017-03-12T03:31:43.889Z,0
2017-03-12T03:32:44.001Z,0
2017-03-12T03:33:43.525Z,0
2017-03-12T03:34:43.555Z,0
2017-03-12T03:35:44.042Z,0
2017-03-12T03:36:44.052Z,0
2017-03-12T03:37:43.968Z,0
2017-03-12T03:38:43.975Z,0
2017-03-12T03:39:43.608Z,0
2017-03-12T03:40:43.597Z,0
2017-03-12T03:41:44.115Z,0
2017-03-12T03:42:44.109Z,0
2017-03-12T03:43:44.162Z,0
2017-03-12T03:44:44.187Z,0
2017-03-12T03:45:44.321Z,0
2017-03-12T03:46:44.608Z,0
2017-03-12T03:47:44.183Z,0
2017-03-12T03:48:44.336Z,0
2017-03-12T03:49:44.322Z,0
2017-03-12T03:50:44.322Z,0
2017-03-12T03:51:43.339Z,0
2017-03-12T03:52:44.339Z,0
2017-03-12T03:53:44.180Z,0
2017-03-12T03:54:44.222Z,0
2017-03-12T03:55:43.803Z,0
2017-03-12T03:56:43.815Z,0
2017-03-12T03:57:44.224Z,0
2017-03-12T03:58:44.233Z,0
2017-03-12T03:59:44.450Z,0
2017-03-12T04:00:44.259Z,0
2017-03-12T04:01:44.318Z,0
2017-03-12T04:02:44.315Z,0
2017-03-12T04:03:44.299Z,0
2017-03-12T04:04:44.015Z,0
2017-03-12T04:05:44.320Z,0
2017-03-12T04:06:44.361Z,0
2017-03-12T04:07:43.544Z,0
2017-03-12T04:08:44.372Z,0
2017-03-12T04:09:45.054Z,0
2017-03-12T04:10:44.391Z,0
2017-03-12T04:11:44.407Z,0
2017-03-12T04:12:44.406Z,0
2017-03-12T04:13:44.426Z,0
2017-03-12T04:14:44.440Z,0
2017-03-12T04:15:44.454Z,0
2017-03-12T04:16:44.458Z,0
2017-03-12T04:17:44.474Z,0
2017-03-12T04:18:44.485Z,0
2017-03-12T04:19:43.734Z,0
2017-03-12T04:20:44.507Z,0
2017-03-12T04:21:44.533Z,0
2017-03-12T04:22:44.538Z,0
2017-03-12T04:23:44.157Z,0
2017-03-12T04:24:44.568Z,0
2017-03-12T04:25:44.203Z,0
2017-03-12T04:26:44.605Z,0
2017-03-12T04:27:44.696Z,0
2017-03-12T04:28:44.690Z,0
2017-03-12T04:29:44.635Z,0
2017-03-12T04:30:44.250Z,0
2017-03-12T04:31:44.638Z,0
2017-03-12T04:32:44.656Z,0
2017-03-12T04:33:44.706Z,0
2017-03-12T04:34:44.682Z,0
2017-03-12T04:35:44.699Z,0
2017-03-12T04:36:44.328Z,0
2017-03-12T04:37:44.921Z,0
2017-03-12T04:38:44.787Z,0
2017-03-12T04:39:44.750Z,0
2017-03-12T04:40:44.771Z,0
2017-03-12T04:41:44.398Z,0
2017-03-12T04:42:44.797Z,0
2017-03-12T04:43:44.799Z,0
2017-03-12T04:44:44.832Z,0
2017-03-12T04:45:44.846Z,0
2017-03-12T04:46:44.832Z,0
2017-03-12T04:47:44.857Z,0
2017-03-12T04:48:44.921Z,0
2017-03-12T04:49:45.077Z,0
2017-03-12T04:50:45.028Z,0
2017-03-12T04:51:45.034Z,0
2017-03-12T04:52:45.051Z,0
2017-03-12T04:53:45.065Z,0
2017-03-12T04:54:45.041Z,0
2017-03-12T04:55:45.046Z,0
2017-03-12T04:56:45.049Z,0
2017-03-12T04:57:45.074Z,0
2017-03-12T04:58:45.081Z,0
2017-03-12T04:59:45.173Z,0
2017-03-12T05:00:45.077Z,0
2017-03-12T05:01:45.098Z,0
2017-03-12T05:02:45.151Z,0
2017-03-12T05:03:45.085Z,0
2017-03-12T05:04:45.088Z,0
2017-03-12T05:05:45.093Z,0
2017-03-12T05:06:44.790Z,0
2017-03-12T05:07:45.213Z,0
2017-03-12T05:08:45.102Z,0
2017-03-12T05:09:45.380Z,0
2017-03-12T05:10:45.226Z,0
2017-03-12T05:11:45.298Z,0
2017-03-12T05:12:45.208Z,0
2017-03-12T05:13:45.179Z,0
2017-03-12T05:14:45.193Z,0
2017-03-12T05:15:45.216Z,0
2017-03-12T05:16:45.406Z,0
2017-03-12T05:17:45.226Z,0
2017-03-12T05:18:44.930Z,0
2017-03-12T05:19:45.247Z,0
2017-03-12T05:20:45.250Z,0
2017-03-12T05:21:45.303Z,0
2017-03-12T05:22:45.271Z,0
2017-03-12T05:23:45.444Z,0
2017-03-12T05:24:45.326Z,0
2017-03-12T05:25:45.332Z,0
2017-03-12T05:26:45.321Z,0
2017-03-12T05:27:45.350Z,0
2017-03-12T05:28:45.455Z,0
2017-03-12T05:29:45.364Z,0
2017-03-12T05:30:45.396Z,0
2017-03-12T05:31:44.998Z,0
2017-03-12T05:32:45.425Z,0
2017-03-12T05:33:45.511Z,0
2017-03-12T05:34:59.956Z,0
2017-03-12T05:35:45.042Z,0
2017-03-12T05:36:45.060Z,0
2017-03-12T05:37:45.107Z,0
2017-03-12T05:38:45.490Z,0
2017-03-12T05:39:45.107Z,0
2017-03-12T05:40:45.606Z,0
2017-03-12T05:41:45.119Z,0
2017-03-12T05:42:45.140Z,0
2017-03-12T05:43:45.553Z,0
2017-03-12T05:44:45.600Z,0
2017-03-12T05:45:45.626Z,0
2017-03-12T05:46:45.592Z,0
2017-03-12T05:47:45.203Z,0
2017-03-12T05:48:45.608Z,0
2017-03-12T05:49:45.630Z,0
2017-03-12T05:50:45.625Z,0
2017-03-12T05:51:45.663Z,0
2017-03-12T05:52:45.268Z,0
2017-03-12T05:53:45.688Z,0
2017-03-12T05:54:45.719Z,0
2017-03-12T05:55:45.324Z,0
2017-03-12T05:56:45.703Z,0
2017-03-12T05:57:45.730Z,0
2017-03-12T05:58:45.739Z,0
2017-03-12T05:59:45.743Z,0
2017-03-12T06:00:45.767Z,0
2017-03-12T06:01:45.758Z,0
2017-03-12T06:02:45.787Z,0
2017-03-12T06:03:45.776Z,0
2017-03-12T06:04:45.785Z,0
2017-03-12T06:05:45.820Z,0
2017-03-12T06:06:45.824Z,0
2017-03-12T06:07:45.451Z,0
2017-03-12T06:08:45.846Z,0
2017-03-12T06:09:45.850Z,0
2017-03-12T06:10:45.867Z,0
2017-03-12T06:11:45.917Z,0
2017-03-12T06:12:45.888Z,0
2017-03-12T06:13:45.923Z,0
2017-03-12T06:14:45.509Z,0
2017-03-12T06:15:45.564Z,0
2017-03-12T06:16:45.963Z,0
2017-03-12T06:17:45.958Z,0
2017-03-12T06:18:46.061Z,0
2017-03-12T06:19:46.075Z,0
2017-03-12T06:20:46.219Z,0
2017-03-12T06:21:46.229Z,0
2017-03-12T06:22:46.236Z,0
2017-03-12T06:23:45.835Z,0
2017-03-12T06:24:46.224Z,0
2017-03-12T06:25:46.266Z,0
2017-03-12T06:26:46.275Z,0
2017-03-12T06:27:46.139Z,0
2017-03-12T06:28:46.273Z,5
2017-03-12T06:29:46.097Z,5
2017-03-12T06:30:46.101Z,0
2017-03-12T06:31:46.135Z,5
2017-03-12T06:32:46.154Z,5
2017-03-12T06:33:46.206Z,0
2017-03-12T06:34:45.759Z,5
2017-03-12T06:35:45.789Z,5
2017-03-12T06:36:46.178Z,5
2017-03-12T06:37:46.191Z,5
2017-03-12T06:38:46.211Z,5
2017-03-12T06:39:46.223Z,5
2017-03-12T06:40:45.884Z,5
2017-03-12T06:41:45.890Z,5
2017-03-12T06:42:46.245Z,5
2017-03-12T06:43:46.284Z,5
2017-03-12T06:44:46.293Z,5
2017-03-12T06:45:45.922Z,5
2017-03-12T06:46:46.298Z,5
2017-03-12T06:47:46.316Z,5
2017-03-12T06:48:46.341Z,5
2017-03-12T06:49:46.354Z,5
2017-03-12T06:50:45.947Z,5
2017-03-12T06:51:45.979Z,5
2017-03-12T06:52:46.391Z,5
2017-03-12T06:53:46.387Z,5
2017-03-12T06:54:46.575Z,5
2017-03-12T06:55:46.426Z,5
2017-03-12T06:56:46.417Z,5
2017-03-12T06:57:46.449Z,10
2017-03-12T06:58:46.481Z,5
2017-03-12T06:59:46.442Z,10
2017-03-12T07:00:46.477Z,10
2017-03-12T07:01:46.562Z,10
2017-03-12T07:02:46.493Z,10
2017-03-12T07:03:46.520Z,10
2017-03-12T07:04:46.151Z,10
2017-03-12T07:05:46.544Z,10
2017-03-12T07:06:46.571Z,5
2017-03-12T07:07:46.581Z,10
2017-03-12T07:08:46.605Z,10
2017-03-12T07:09:46.193Z,10
2017-03-12T07:10:46.588Z,10
2017-03-12T07:11:46.234Z,10
2017-03-12T07:12:46.666Z,10
2017-03-12T07:13:46.646Z,10
2017-03-12T07:14:46.694Z,10
2017-03-12T07:15:46.776Z,10
2017-03-12T07:16:46.354Z,10
2017-03-12T07:17:46.776Z,10
2017-03-12T07:18:46.790Z,10
2017-03-12T07:19:46.826Z,10
2017-03-12T07:20:46.452Z,15
2017-03-12T07:21:46.798Z,10
2017-03-12T07:22:45.952Z,10
2017-03-12T07:23:46.847Z,15
2017-03-12T07:24:46.894Z,10
2017-03-12T07:25:46.793Z,15
2017-03-12T07:26:46.931Z,15
2017-03-12T07:27:46.815Z,10
2017-03-12T07:28:46.812Z,15
2017-03-12T07:29:46.869Z,15
2017-03-12T07:30:46.830Z,10
2017-03-12T07:31:46.866Z,15
2017-03-12T07:32:46.881Z,15
2017-03-12T07:33:46.883Z,10
2017-03-12T07:34:46.910Z,15
2017-03-12T07:35:46.650Z,15
2017-03-12T07:36:46.932Z,10
2017-03-12T07:37:46.930Z,10
2017-03-12T07:38:46.947Z,15
2017-03-12T07:39:46.959Z,15
2017-03-12T07:40:47.159Z,15
2017-03-12T07:41:46.968Z,15
2017-03-12T07:42:46.983Z,10
2017-03-12T07:43:46.999Z,15
2017-03-12T07:44:47.006Z,15
2017-03-12T07:45:46.764Z,10
2017-03-12T07:46:46.765Z,15
2017-03-12T07:47:46.762Z,15
2017-03-12T07:48:47.068Z,15
2017-03-12T07:49:47.084Z,10
2017-03-12T07:50:47.772Z,15
2017-03-12T07:51:47.104Z,15
2017-03-12T07:52:47.116Z,15
2017-03-12T07:53:47.120Z,15
2017-03-12T07:54:46.781Z,15
2017-03-12T07:55:47.147Z,10
2017-03-12T07:56:47.156Z,10
2017-03-12T07:57:47.170Z,10
2017-03-12T07:58:47.182Z,10
2017-03-12T07:59:47.201Z,10
2017-03-12T08:00:47.219Z,5
2017-03-12T08:01:47.232Z,10
2017-03-12T08:02:47.254Z,5
2017-03-12T08:03:46.876Z,10
2017-03-12T08:04:47.270Z,5
2017-03-12T08:05:46.917Z,10
2017-03-12T08:06:46.893Z,5
2017-03-12T08:07:47.298Z,5
2017-03-12T08:08:46.931Z,10
2017-03-12T08:09:47.336Z,15
2017-03-12T08:10:47.338Z,5
2017-03-12T08:11:47.350Z,5
2017-03-12T08:12:46.957Z,5
2017-03-12T08:13:47.374Z,5
2017-03-12T08:14:47.405Z,5
2017-03-12T08:15:47.437Z,5
2017-03-12T08:16:47.046Z,10
2017-03-12T08:17:47.427Z,5
2017-03-12T08:18:47.439Z,5
2017-03-12T08:19:47.055Z,5
2017-03-12T08:20:47.460Z,5
2017-03-12T08:21:47.492Z,5
2017-03-12T08:22:47.493Z,5
2017-03-12T08:23:47.532Z,5
2017-03-12T08:24:47.511Z,5
2017-03-12T08:25:47.530Z,5
2017-03-12T08:26:47.138Z,5
2017-03-12T08:27:47.556Z,5
2017-03-12T08:28:47.180Z,5
2017-03-12T08:29:47.588Z,5
2017-03-12T08:30:47.590Z,5
2017-03-12T08:31:47.600Z,5
2017-03-12T08:32:47.626Z,5
2017-03-12T08:33:47.643Z,5
2017-03-12T08:34:47.648Z,10
2017-03-12T08:35:47.659Z,10
2017-03-12T08:36:47.678Z,10
2017-03-12T08:37:47.690Z,10
2017-03-12T08:38:47.302Z,10
2017-03-12T08:39:47.698Z,10
2017-03-12T08:40:47.724Z,10
2017-03-12T08:41:47.783Z,10
2017-03-12T08:42:47.741Z,10
2017-03-12T08:43:47.868Z,10
2017-03-12T08:44:47.892Z,10
2017-03-12T08:45:47.994Z,10
2017-03-12T08:46:47.910Z,10
2017-03-12T08:47:48.063Z,10
2017-03-12T08:48:48.006Z,10
2017-03-12T08:49:47.842Z,10
2017-03-12T08:50:47.924Z,10
2017-03-12T08:51:47.847Z,10
2017-03-12T08:52:47.873Z,10
2017-03-12T08:53:47.902Z,10
2017-03-12T08:54:47.905Z,10
2017-03-12T08:55:47.912Z,15
2017-03-12T08:56:47.958Z,15
2017-03-12T08:57:47.984Z,10
2017-03-12T08:58:47.940Z,10
2017-03-12T08:59:47.974Z,10
2017-03-12T09:00:47.999Z,15
2017-03-12T09:01:48.011Z,15
2017-03-12T09:02:48.025Z,15
2017-03-12T09:03:48.017Z,15
2017-03-12T09:04:48.068Z,15
2017-03-12T09:05:48.033Z,15
2017-03-12T09:06:48.058Z,15
2017-03-12T09:07:48.064Z,15
2017-03-12T09:08:47.717Z,15
2017-03-12T09:09:48.101Z,15
2017-03-12T09:10:47.743Z,15
2017-03-12T09:11:47.741Z,15
2017-03-12T09:12:48.128Z,15
2017-03-12T09:13:48.185Z,15
2017-03-12T09:14:48.171Z,15
2017-03-12T09:15:48.161Z,15
2017-03-12T09:16:48.203Z,15
2017-03-12T09:17:48.212Z,15
2017-03-12T09:18:48.233Z,15
2017-03-12T09:19:47.873Z,15
2017-03-12T09:20:48.244Z,15
2017-03-12T09:21:48.267Z,15
2017-03-12T09:22:48.278Z,20
2017-03-12T09:23:48.317Z,20
2017-03-12T09:24:48.329Z,20
2017-03-12T09:25:48.349Z,20
2017-03-12T09:26:48.356Z,20
2017-03-12T09:27:48.336Z,15
2017-03-12T09:28:48.372Z,10
2017-03-12T09:29:48.375Z,10
2017-03-12T09:30:48.406Z,10
2017-03-12T09:31:48.407Z,10
2017-03-12T09:32:48.030Z,10
2017-03-12T09:33:48.425Z,10
2017-03-12T09:34:48.466Z,10
2017-03-12T09:35:48.472Z,10
2017-03-12T09:36:48.084Z,10
2017-03-12T09:37:48.499Z,10
2017-03-12T09:38:48.508Z,10
2017-03-12T09:39:48.517Z,10
2017-03-12T09:40:48.549Z,10
2017-03-12T09:41:48.541Z,10
2017-03-12T09:42:48.588Z,10
2017-03-12T09:43:48.189Z,10
2017-03-12T09:44:48.590Z,10
2017-03-12T09:46:02.709Z,10
2017-03-12T09:46:48.627Z,10
2017-03-12T09:47:48.641Z,10
2017-03-12T09:48:48.663Z,10
2017-03-12T09:49:48.670Z,10
2017-03-12T09:50:48.703Z,10
2017-03-12T09:51:48.738Z,10
2017-03-12T09:52:48.710Z,15
2017-03-12T09:53:48.735Z,15
2017-03-12T09:54:48.745Z,15
2017-03-12T09:55:50.078Z,15
2017-03-12T09:56:48.866Z,15
2017-03-12T09:57:48.883Z,15
2017-03-12T09:58:48.874Z,15
2017-03-12T09:59:48.882Z,15
2017-03-12T10:00:48.889Z,15
2017-03-12T10:01:48.906Z,15
2017-03-12T10:02:49.090Z,15
2017-03-12T10:03:49.163Z,15
2017-03-12T10:04:48.920Z,15
2017-03-12T10:05:48.926Z,15
2017-03-12T10:06:48.949Z,10
2017-03-12T10:07:48.945Z,10
2017-03-12T10:08:49.014Z,10
2017-03-12T10:09:49.018Z,10
2017-03-12T10:10:48.659Z,15
2017-03-12T10:11:49.027Z,15
2017-03-12T10:12:49.039Z,15
2017-03-12T10:13:49.041Z,15
2017-03-12T10:14:49.046Z,15
2017-03-12T10:15:49.048Z,10
2017-03-12T10:16:49.125Z,10
2017-03-12T10:17:49.124Z,15
2017-03-12T10:18:49.198Z,15
2017-03-12T10:19:49.204Z,20
2017-03-12T10:20:48.959Z,25
2017-03-12T10:21:49.361Z,25
2017-03-12T10:22:48.969Z,25
2017-03-12T10:23:49.383Z,25
2017-03-12T10:24:49.528Z,25
2017-03-12T10:25:49.399Z,20
2017-03-12T10:26:49.405Z,20
2017-03-12T10:27:48.970Z,15
2017-03-12T10:28:49.381Z,15
2017-03-12T10:29:49.006Z,15
2017-03-12T10:30:49.408Z,15
2017-03-12T10:31:49.425Z,15
2017-03-12T10:32:49.489Z,15
2017-03-12T10:33:49.503Z,20
2017-03-12T10:34:49.506Z,20
2017-03-12T10:35:49.505Z,20
2017-03-12T10:36:49.511Z,20
2017-03-12T10:37:49.523Z,20
2017-03-12T10:38:49.528Z,20
2017-03-12T10:39:49.542Z,20
2017-03-12T10:40:49.547Z,15
2017-03-12T10:41:49.543Z,15
2017-03-12T10:42:49.558Z,15
2017-03-12T10:43:49.565Z,15
2017-03-12T10:44:49.618Z,15
2017-03-12T10:45:49.538Z,15
2017-03-12T10:46:49.548Z,20
2017-03-12T10:47:49.567Z,20
2017-03-12T10:48:49.582Z,25
2017-03-12T10:49:49.371Z,25
2017-03-12T10:50:49.364Z,25
2017-03-12T10:51:49.625Z,25
2017-03-12T10:52:49.727Z,25
2017-03-12T10:53:49.688Z,25
2017-03-12T10:54:49.675Z,20
2017-03-12T10:55:49.688Z,25
2017-03-12T10:56:49.693Z,25
2017-03-12T10:57:49.726Z,25
2017-03-12T10:58:49.473Z,30
2017-03-12T10:59:49.754Z,30
2017-03-12T11:00:49.778Z,35
2017-03-12T11:01:49.805Z,30
2017-03-12T11:02:49.816Z,25
2017-03-12T11:03:49.503Z,25
2017-03-12T11:04:49.846Z,20
2017-03-12T11:05:49.846Z,20
2017-03-12T11:06:49.873Z,25
2017-03-12T11:07:49.891Z,25
2017-03-12T11:08:49.925Z,20
2017-03-12T11:09:49.935Z,20
2017-03-12T11:10:49.989Z,25
2017-03-12T11:11:49.558Z,25
2017-03-12T11:12:50.018Z,25
2017-03-12T11:13:49.996Z,20
2017-03-12T11:14:50.014Z,15
2017-03-12T11:15:50.027Z,20
2017-03-12T11:16:50.031Z,20
2017-03-12T11:17:50.072Z,15
2017-03-12T11:18:50.076Z,15
2017-03-12T11:19:50.091Z,15
2017-03-12T11:20:49.717Z,20
2017-03-12T11:21:50.126Z,20
2017-03-12T11:22:49.528Z,20
2017-03-12T11:23:50.159Z,20
2017-03-12T11:24:50.174Z,30
2017-03-12T11:25:50.239Z,30
2017-03-12T11:26:50.207Z,30
2017-03-12T11:27:50.230Z,30
2017-03-12T11:28:50.256Z,30
2017-03-12T11:29:50.257Z,30
2017-03-12T11:30:50.274Z,30
2017-03-12T11:31:50.300Z,30
2017-03-12T11:32:50.318Z,30
2017-03-12T11:33:49.960Z,30
2017-03-12T11:34:50.364Z,30
2017-03-12T11:35:50.391Z,30
2017-03-12T11:36:50.390Z,25
2017-03-12T11:37:50.412Z,25
2017-03-12T11:38:50.413Z,25
2017-03-12T11:39:50.046Z,25
2017-03-12T11:40:50.663Z,25
2017-03-12T11:41:50.477Z,25
2017-03-12T11:42:50.547Z,30
2017-03-12T11:43:50.506Z,35
2017-03-12T11:44:50.537Z,35
2017-03-12T11:45:50.558Z,35
2017-03-12T11:46:50.551Z,30
2017-03-12T11:47:50.571Z,30
2017-03-12T11:48:50.618Z,25
2017-03-12T11:49:50.643Z,20
2017-03-12T11:50:50.237Z,20
2017-03-12T11:51:50.252Z,20
2017-03-12T11:52:50.265Z,20
2017-03-12T11:53:50.301Z,20
2017-03-12T11:54:50.743Z,25
2017-03-12T11:55:50.338Z,25
2017-03-12T11:56:50.343Z,30
2017-03-12T11:57:50.767Z,35
2017-03-12T11:58:50.788Z,35
2017-03-12T11:59:50.798Z,35
2017-03-12T12:00:50.422Z,30
2017-03-12T12:01:50.843Z,25
2017-03-12T12:02:50.867Z,20
2017-03-12T12:03:50.894Z,15
2017-03-12T12:04:50.881Z,15
2017-03-12T12:05:50.896Z,15
2017-03-12T12:06:50.921Z,15
2017-03-12T12:07:50.961Z,15
2017-03-12T12:08:51.265Z,15
2017-03-12T12:09:50.978Z,20
2017-03-12T12:10:51.000Z,20
2017-03-12T12:11:51.052Z,25
2017-03-12T12:12:51.038Z,25
2017-03-12T12:13:51.053Z,25
2017-03-12T12:14:51.067Z,25
2017-03-12T12:15:51.081Z,25
2017-03-12T12:16:50.717Z,25
2017-03-12T12:17:51.161Z,25
2017-03-12T12:18:51.278Z,25
2017-03-12T12:19:51.245Z,25
2017-03-12T12:20:51.259Z,30
2017-03-12T12:21:51.249Z,30
2017-03-12T12:22:51.291Z,30
2017-03-12T12:23:51.263Z,25
2017-03-12T12:24:51.286Z,25
2017-03-12T12:25:51.297Z,20
2017-03-12T12:26:51.416Z,25
2017-03-12T12:27:51.315Z,25
2017-03-12T12:28:51.454Z,25
2017-03-12T12:29:51.460Z,25
2017-03-12T12:30:51.461Z,25
2017-03-12T12:31:51.408Z,25
2017-03-12T12:32:51.500Z,30
2017-03-12T12:33:51.410Z,25
2017-03-12T12:34:51.525Z,25
2017-03-12T12:35:51.534Z,25
2017-03-12T12:36:51.581Z,20
2017-03-12T12:37:51.597Z,20
2017-03-12T12:38:51.597Z,20
2017-03-12T12:39:51.613Z,20
2017-03-12T12:40:51.641Z,20
2017-03-12T12:41:51.649Z,25
2017-03-12T12:42:51.819Z,25
2017-03-12T12:43:51.741Z,25
2017-03-12T12:44:51.758Z,30
2017-03-12T12:45:51.746Z,30
2017-03-12T12:46:51.760Z,35
2017-03-12T12:47:51.777Z,35
2017-03-12T12:48:51.925Z,30
2017-03-12T12:49:51.915Z,35
2017-03-12T12:50:51.522Z,35
2017-03-12T12:51:51.928Z,40
2017-03-12T12:52:51.947Z,35
2017-03-12T12:53:51.918Z,35
2017-03-12T12:54:51.924Z,35
2017-03-12T12:55:51.927Z,30
2017-03-12T12:56:52.151Z,25
2017-03-12T12:57:53.146Z,25
2017-03-12T12:58:52.148Z,25
2017-03-12T12:59:51.930Z,30
2017-03-12T13:00:51.959Z,25
2017-03-12T13:01:51.938Z,25
2017-03-12T13:02:51.960Z,25
2017-03-12T13:03:51.978Z,25
2017-03-12T13:04:51.998Z,25
2017-03-12T13:05:52.018Z,25
2017-03-12T13:06:52.049Z,25
2017-03-12T13:07:52.060Z,25
2017-03-12T13:08:52.082Z,25
2017-03-12T13:09:51.794Z,25
2017-03-12T13:10:52.147Z,30
2017-03-12T13:11:52.122Z,40
2017-03-12T13:12:52.157Z,35
2017-03-12T13:13:51.854Z,35
2017-03-12T13:14:52.186Z,30
2017-03-12T13:15:52.194Z,30
2017-03-12T13:16:52.256Z,35
2017-03-12T13:17:52.241Z,30
2017-03-12T13:18:52.260Z,30
2017-03-12T13:19:52.281Z,25
2017-03-12T13:20:52.341Z,25
2017-03-12T13:21:52.348Z,25
2017-03-12T13:22:52.332Z,25
2017-03-12T13:23:52.409Z,25
2017-03-12T13:24:52.379Z,30
2017-03-12T13:25:52.412Z,30
2017-03-12T13:26:52.437Z,30
2017-03-12T13:27:52.437Z,30
2017-03-12T13:28:52.454Z,25
2017-03-12T13:29:52.460Z,20
2017-03-12T13:30:52.091Z,20
2017-03-12T13:31:52.521Z,20
2017-03-12T13:32:52.545Z,20
2017-03-12T13:33:52.550Z,20
2017-03-12T13:34:52.574Z,20
2017-03-12T13:35:52.571Z,20
2017-03-12T13:36:52.637Z,20
2017-03-12T13:37:52.624Z,15
2017-03-12T13:38:52.626Z,20
2017-03-12T13:39:52.652Z,20
2017-03-12T13:40:52.514Z,25
2017-03-12T13:41:52.708Z,20
2017-03-12T13:42:52.731Z,20
2017-03-12T13:43:52.737Z,25
2017-03-12T13:44:52.765Z,30
2017-03-12T13:45:52.768Z,30
2017-03-12T13:46:52.789Z,35
2017-03-12T13:47:52.826Z,30
2017-03-12T13:48:52.829Z,30
2017-03-12T13:49:52.850Z,30
2017-03-12T13:50:52.863Z,30
2017-03-12T13:51:52.888Z,25
2017-03-12T13:52:52.938Z,30
2017-03-12T13:53:52.917Z,20
2017-03-12T13:54:52.939Z,20
2017-03-12T13:55:52.563Z,15
2017-03-12T13:56:52.977Z,15
2017-03-12T13:57:52.998Z,20
2017-03-12T13:58:53.002Z,20
2017-03-12T13:59:53.036Z,20
2017-03-12T14:00:53.074Z,20
2017-03-12T14:01:53.081Z,25
2017-03-12T14:02:53.096Z,30
2017-03-12T14:03:53.119Z,35
2017-03-12T14:04:53.426Z,35
2017-03-12T14:05:53.148Z,40
2017-03-12T14:06:52.759Z,45
2017-03-12T14:07:53.177Z,50
2017-03-12T14:08:53.212Z,45
2017-03-12T14:09:53.231Z,50
2017-03-12T14:10:53.246Z,50
2017-03-12T14:11:53.270Z,40
2017-03-12T14:12:52.891Z,25
2017-03-12T14:13:53.310Z,25
2017-03-12T14:14:53.326Z,25
2017-03-12T14:15:53.361Z,25
2017-03-12T14:16:53.376Z,25
2017-03-12T14:17:53.379Z,25
2017-03-12T14:18:53.408Z,20
2017-03-12T14:19:53.434Z,20
2017-03-12T14:20:53.462Z,15
2017-03-12T14:21:53.453Z,20
2017-03-12T14:22:53.478Z,20
2017-03-12T14:23:53.109Z,20
2017-03-12T14:24:53.494Z,20
2017-03-12T14:25:53.637Z,20
2017-03-12T14:26:53.668Z,20
2017-03-12T14:27:53.661Z,15
2017-03-12T14:28:53.680Z,15
2017-03-12T14:29:52.807Z,15
2017-03-12T14:30:53.314Z,15
2017-03-12T14:31:53.726Z,15